createdAt,value
2022-08-31T00:00:56.343Z,89.79
2022-08-31T00:06:02.586Z,98.81
2022-08-31T00:11:04.382Z,100.00
2022-08-31T00:16:10.723Z,100.00
2022-08-31T00:21:12.629Z,100.00
2022-08-31T00:26:15.532Z,100.00
2022-08-31T00:31:17.910Z,100.00
2022-08-31T00:36:23.307Z,100.00
2022-08-31T00:41:28.031Z,100.00
2022-08-31T00:46:32.957Z,100.00
2022-08-31T00:51:40.787Z,100.00
2022-08-31T00:56:43.083Z,100.00
2022-08-31T01:01:45.256Z,100.00
2022-08-31T01:06:49.095Z,100.00
2022-08-31T01:11:51.150Z,100.00
2022-08-31T01:16:55.168Z,100.00
2022-08-31T01:22:04.611Z,100.00
2022-08-31T01:27:07.414Z,100.00
2022-08-31T01:32:09.218Z,100.00
2022-08-31T01:37:12.023Z,100.00
2022-08-31T01:42:15.195Z,100.00
2022-08-31T01:47:17.119Z,100.00
2022-08-31T01:52:18.820Z,100.00
2022-08-31T01:57:21.770Z,100.00
2022-08-31T02:02:50.094Z,100.00
2022-08-31T02:07:52.153Z,100.00
2022-08-31T02:12:54.092Z,100.00
2022-08-31T02:18:04.187Z,100.00
2022-08-31T02:23:06.306Z,100.00
2022-08-31T02:28:09.080Z,100.00
2022-08-31T02:33:11.461Z,100.00
2022-08-31T02:38:13.434Z,100.00
2022-08-31T02:43:17.536Z,100.00
2022-08-31T02:48:28.623Z,100.00
2022-08-31T02:53:30.275Z,100.00
2022-08-31T02:58:31.961Z,100.00
2022-08-31T03:03:35.507Z,100.00
2022-08-31T03:08:37.163Z,100.00
2022-08-31T03:13:39.846Z,100.00
2022-08-31T03:18:41.914Z,100.00
2022-08-31T03:23:44.056Z,100.00
2022-08-31T03:28:46.484Z,100.00
2022-08-31T03:34:26.408Z,100.00
2022-08-31T03:39:28.310Z,100.00
2022-08-31T03:44:30.073Z,100.00
2022-08-31T03:49:31.896Z,100.00
2022-08-31T03:54:43.463Z,100.00
2022-08-31T03:59:45.189Z,100.00
2022-08-31T04:04:54.158Z,100.00
2022-08-31T04:10:15.051Z,100.00
2022-08-31T04:15:39.232Z,100.00
2022-08-31T04:20:59.730Z,100.00
2022-08-31T04:26:01.531Z,100.00
2022-08-31T04:31:06.238Z,100.00
2022-08-31T04:36:10.024Z,100.00
2022-08-31T04:41:13.947Z,100.00
2022-08-31T04:46:17.724Z,100.00
2022-08-31T04:51:23.596Z,100.00
2022-08-31T04:56:28.750Z,100.00
2022-08-31T05:01:42.766Z,100.00
2022-08-31T05:07:20.317Z,100.00
2022-08-31T05:12:22.855Z,100.00
2022-08-31T05:17:24.552Z,100.00
2022-08-31T05:22:29.415Z,100.00
2022-08-31T05:27:32.100Z,100.00
2022-08-31T05:32:35.131Z,100.00
2022-08-31T05:37:40.399Z,100.00
2022-08-31T05:42:43.085Z,100.00
2022-08-31T05:47:44.762Z,100.00
2022-08-31T05:52:46.813Z,100.00
2022-08-31T05:57:48.928Z,100.00
2022-08-31T06:02:53.799Z,100.00
2022-08-31T06:07:56.059Z,100.00
2022-08-31T06:12:58.579Z,100.00
2022-08-31T06:18:00.334Z,100.00
2022-08-31T06:23:02.905Z,100.00
2022-08-31T06:28:16.156Z,100.00
2022-08-31T06:33:18.241Z,100.00
2022-08-31T06:38:32.869Z,100.00
2022-08-31T06:44:06.282Z,100.00
2022-08-31T06:49:30.129Z,100.00
2022-08-31T06:54:32.392Z,100.00
2022-08-31T06:59:53.857Z,100.00
2022-08-31T07:05:08.999Z,100.00
2022-08-31T07:10:12.660Z,100.00
2022-08-31T07:15:15.345Z,100.00
2022-08-31T07:20:17.329Z,100.00
2022-08-31T07:25:20.004Z,100.00
2022-08-31T07:30:24.171Z,100.00
2022-08-31T07:35:25.932Z,100.00
2022-08-31T07:40:50.469Z,100.00
2022-08-31T07:45:53.773Z,100.00
2022-08-31T07:50:59.318Z,100.00
2022-08-31T07:56:17.548Z,100.00
2022-08-31T08:01:20.363Z,100.00
2022-08-31T08:06:22.362Z,100.00
2022-08-31T08:11:45.272Z,100.00
2022-08-31T08:17:03.558Z,100.00
2022-08-31T08:22:11.198Z,100.00
2022-08-31T08:27:32.027Z,100.00
2022-08-31T08:32:45.497Z,100.00
2022-08-31T08:37:58.589Z,100.00
2022-08-31T08:43:03.977Z,100.00
2022-08-31T08:48:06.125Z,100.00
2022-08-31T08:53:11.405Z,100.00
2022-08-31T08:58:19.992Z,100.00
2022-08-31T09:03:36.382Z,97.27
2022-08-31T09:09:24.521Z,100.00
2022-08-31T09:14:48.488Z,100.00
2022-08-31T09:19:51.248Z,100.00
2022-08-31T09:24:53.345Z,99.50
2022-08-31T09:30:32.757Z,99.76
2022-08-31T09:35:37.519Z,97.32
2022-08-31T09:40:41.699Z,96.73
2022-08-31T09:46:05.623Z,93.45
2022-08-31T09:51:07.410Z,91.81
2022-08-31T09:56:10.802Z,83.55
2022-08-31T10:01:17.908Z,74.59
2022-08-31T10:06:40.024Z,83.77
2022-08-31T10:11:45.165Z,89.56
2022-08-31T10:16:53.071Z,82.28
2022-08-31T10:21:59.508Z,76.86
2022-08-31T10:27:15.120Z,85.75
2022-08-31T10:32:38.661Z,76.31
2022-08-31T10:37:48.054Z,75.81
2022-08-31T10:43:14.068Z,72.32
2022-08-31T10:48:18.330Z,77.72
2022-08-31T10:53:40.316Z,69.14
2022-08-31T10:59:02.348Z,64.45
2022-08-31T11:04:22.070Z,56.44
2022-08-31T11:09:29.022Z,63.04
2022-08-31T11:14:51.833Z,69.78
2022-08-31T11:19:59.284Z,66.04
2022-08-31T11:25:09.201Z,62.65
2022-08-31T11:30:29.686Z,64.43
2022-08-31T11:36:06.716Z,67.58
2022-08-31T11:41:09.741Z,63.43
2022-08-31T11:46:23.320Z,59.02
2022-08-31T11:51:57.648Z,58.28
2022-08-31T11:56:59.436Z,57.16
2022-08-31T12:02:19.398Z,53.77
2022-08-31T12:07:31.616Z,57.73
2022-08-31T12:12:48.196Z,60.22
2022-08-31T12:17:55.579Z,60.77
2022-08-31T12:23:30.088Z,65.57
2022-08-31T12:28:51.723Z,64.16
2022-08-31T12:34:05.426Z,56.75
2022-08-31T12:39:28.351Z,59.32
2022-08-31T12:44:36.979Z,59.07
2022-08-31T12:49:39.599Z,58.53
2022-08-31T12:54:59.393Z,58.60
2022-08-31T13:00:13.114Z,59.47
2022-08-31T13:05:21.261Z,59.32
2022-08-31T13:10:34.804Z,55.73
2022-08-31T13:15:43.067Z,53.85
2022-08-31T13:20:45.399Z,56.34
2022-08-31T13:26:15.296Z,56.81
2022-08-31T13:31:26.740Z,53.07
2022-08-31T13:36:31.922Z,52.02
2022-08-31T13:41:37.796Z,51.55
2022-08-31T13:46:44.119Z,48.78
2022-08-31T13:51:46.825Z,51.78
2022-08-31T13:56:48.553Z,45.88
2022-08-31T14:02:26.959Z,48.12
2022-08-31T14:07:35.400Z,51.52
2022-08-31T14:12:48.576Z,54.83
2022-08-31T14:23:18.949Z,61.39
2022-08-31T14:28:21.850Z,60.49
2022-08-31T14:33:23.856Z,57.37
2022-08-31T14:38:25.441Z,56.93
2022-08-31T14:43:27.266Z,55.86
2022-08-31T14:48:28.976Z,58.44
2022-08-31T14:53:30.640Z,61.18
2022-08-31T14:58:32.452Z,63.30
2022-08-31T15:03:34.799Z,61.25
2022-08-31T15:08:38.713Z,61.06
2022-08-31T15:13:40.627Z,61.58
2022-08-31T15:18:42.441Z,60.23
2022-08-31T15:23:44.005Z,59.51
2022-08-31T15:28:45.806Z,60.46
2022-08-31T15:33:47.898Z,59.12
2022-08-31T15:38:50.236Z,58.85
2022-08-31T15:43:55.389Z,58.11
2022-08-31T15:48:57.149Z,58.22
2022-08-31T15:54:20.850Z,59.24
2022-08-31T15:59:22.549Z,58.12
2022-08-31T16:04:24.393Z,57.89
2022-08-31T16:09:27.240Z,57.88
2022-08-31T16:14:29.209Z,58.22
2022-08-31T16:19:35.402Z,58.06
2022-08-31T16:24:38.065Z,57.22
2022-08-31T16:29:41.052Z,56.78
2022-08-31T16:34:42.853Z,52.85
2022-08-31T16:39:45.218Z,51.07
2022-08-31T16:44:48.024Z,49.09
2022-08-31T16:49:50.045Z,48.22
2022-08-31T16:54:52.726Z,48.80
2022-08-31T16:59:56.149Z,49.67
2022-08-31T17:04:57.751Z,47.76
2022-08-31T17:09:59.851Z,49.24
2022-08-31T17:15:02.367Z,47.08
2022-08-31T17:20:05.090Z,47.04
2022-08-31T17:25:07.370Z,49.19
2022-08-31T17:30:09.603Z,50.19
2022-08-31T17:35:11.411Z,51.67
2022-08-31T17:40:13.138Z,55.52
2022-08-31T17:45:14.941Z,54.81
2022-08-31T17:50:16.818Z,57.02
2022-08-31T17:55:18.583Z,60.50
2022-08-31T18:00:20.552Z,62.84
2022-08-31T18:05:22.510Z,65.02
2022-08-31T18:10:24.332Z,60.99
2022-08-31T18:15:26.141Z,64.35
2022-08-31T18:20:27.742Z,61.31
2022-08-31T18:25:35.986Z,60.00
2022-08-31T18:30:39.181Z,62.25
2022-08-31T18:35:46.967Z,63.52
2022-08-31T18:40:49.048Z,67.21
2022-08-31T18:45:51.568Z,71.71
2022-08-31T18:50:54.052Z,75.95
2022-08-31T18:55:55.794Z,86.90
2022-08-31T19:00:58.751Z,84.01
2022-08-31T19:06:05.174Z,80.04
2022-08-31T19:11:08.437Z,75.57
2022-08-31T19:16:20.433Z,75.81
2022-08-31T19:21:28.565Z,78.88
2022-08-31T19:26:37.824Z,74.82
2022-08-31T19:31:41.996Z,75.15
2022-08-31T19:36:45.368Z,69.91
2022-08-31T19:41:51.904Z,67.48
2022-08-31T19:46:55.704Z,67.48
2022-08-31T19:52:00.502Z,65.27
2022-08-31T19:57:02.437Z,64.96
2022-08-31T20:02:05.654Z,64.94
2022-08-31T20:07:08.208Z,66.78
2022-08-31T20:12:11.027Z,67.94
2022-08-31T20:17:12.776Z,69.46
2022-08-31T20:22:14.535Z,68.38
2022-08-31T20:27:16.465Z,69.03
2022-08-31T20:32:20.699Z,70.11
2022-08-31T20:37:22.463Z,69.30
2022-08-31T20:42:24.714Z,67.40
2022-08-31T20:47:26.439Z,68.38
2022-08-31T20:52:31.680Z,68.46
2022-08-31T20:57:35.917Z,69.27
2022-08-31T21:02:38.082Z,69.25
2022-08-31T21:07:40.656Z,68.04
2022-08-31T21:12:42.695Z,67.28
2022-08-31T21:17:44.895Z,67.06
2022-08-31T21:22:47.159Z,67.43
2022-08-31T21:27:48.839Z,66.76
2022-08-31T21:32:50.470Z,67.29
2022-08-31T21:37:52.151Z,67.02
2022-08-31T21:42:53.963Z,67.69
2022-08-31T21:47:55.674Z,68.22
2022-08-31T21:53:00.398Z,69.02
2022-08-31T21:58:02.324Z,67.80
2022-08-31T22:03:03.956Z,67.74
2022-08-31T22:08:05.561Z,67.54
2022-08-31T22:13:08.775Z,67.87
2022-08-31T22:18:58.217Z,66.74
2022-08-31T22:23:33.486Z,68.34
2022-08-31T22:28:35.595Z,69.49
2022-08-31T22:33:38.098Z,71.31
2022-08-31T22:38:43.620Z,72.86
2022-08-31T22:43:46.373Z,72.77
2022-08-31T22:48:48.014Z,72.80
2022-08-31T22:53:50.604Z,75.64
2022-08-31T22:58:54.409Z,77.18
2022-08-31T23:03:58.939Z,78.80
2022-08-31T23:09:02.171Z,80.47
2022-08-31T23:14:07.446Z,82.88
2022-08-31T23:19:15.581Z,84.41
2022-08-31T23:24:29.419Z,85.86
2022-08-31T23:29:33.578Z,86.71
2022-08-31T23:34:35.337Z,88.21
2022-08-31T23:39:41.540Z,88.71
2022-08-31T23:44:44.963Z,84.28
2022-08-31T23:49:47.624Z,82.12
2022-08-31T23:54:52.713Z,82.76
